Time;durP1;ratioP1;P1;durP2;ratioP2;P2;SDS_P1;SDS_P2;PMS_P1;PMS_P2;Temp;Humidity;BMP_temperature;BMP_pressure;BME280_temperature;BME280_humidity;BME280_pressure;Samples;Min_cycle;Max_cycle;Signal;HPM_P1;HPM_P2
2021/03/14 00:00:28;;;;;;;4.05;0.77;;;5.20;88.90;;;;;;5006184;28;20061;-76
2021/03/14 00:02:56;;;;;;;1.70;0.77;;;5.20;88.80;;;;;;4993603;28;20045;-75
2021/03/14 00:05:23;;;;;;;1.55;0.70;;;5.20;88.90;;;;;;4999767;28;20058;-77
2021/03/14 00:07:51;;;;;;;2.47;1.38;;;5.20;88.80;;;;;;4980788;28;20054;-77
2021/03/14 00:10:19;;;;;;;2.10;0.90;;;5.20;88.60;;;;;;4999415;28;20116;-77
2021/03/14 00:12:46;;;;;;;2.80;0.88;;;5.10;88.70;;;;;;4989103;28;20142;-76
2021/03/14 00:15:14;;;;;;;3.30;0.88;;;5.10;88.40;;;;;;5002080;28;20272;-76
2021/03/14 00:17:41;;;;;;;7.70;1.33;;;5.10;88.20;;;;;;5000274;28;20066;-76
2021/03/14 00:20:09;;;;;;;1.38;0.50;;;5.00;88.10;;;;;;5000836;28;20064;-76
2021/03/14 00:22:36;;;;;;;2.78;0.90;;;5.10;88.10;;;;;;5001369;28;20058;-75
2021/03/14 00:25:06;;;;;;;1.15;0.88;;;5.10;87.30;;;;;;4993201;28;20112;-77
2021/03/14 00:27:33;;;;;;;3.22;0.70;;;5.10;87.00;;;;;;5008969;28;20198;-77
2021/03/14 00:30:03;;;;;;;2.20;0.45;;;5.10;86.40;;;;;;4999689;28;20046;-76
2021/03/14 00:32:30;;;;;;;4.05;1.20;;;5.00;86.90;;;;;;5009609;28;20125;-77
2021/03/14 00:34:57;;;;;;;5.45;0.85;;;5.10;86.80;;;;;;4983520;28;21194;-76
2021/03/14 00:37:24;;;;;;;3.08;0.75;;;5.00;87.10;;;;;;4999441;28;20414;-78
2021/03/14 00:39:51;;;;;;;6.28;0.98;;;5.10;86.90;;;;;;5000428;28;20060;-76
2021/03/14 00:42:18;;;;;;;1.25;0.80;;;5.00;86.60;;;;;;4999889;28;20058;-76
2021/03/14 00:44:46;;;;;;;5.82;1.08;;;5.10;86.80;;;;;;5000954;28;20118;-76
2021/03/14 00:47:14;;;;;;;3.53;1.15;;;5.10;87.10;;;;;;4999698;28;20042;-76
2021/03/14 00:49:40;;;;;;;6.88;1.45;;;5.20;86.70;;;;;;4981359;28;20253;-74
2021/03/14 00:52:08;;;;;;;3.42;0.40;;;5.10;86.60;;;;;;4999825;28;20183;-76
2021/03/14 00:54:37;;;;;;;3.08;1.02;;;5.10;86.40;;;;;;5000127;28;20050;-76
2021/03/14 00:57:05;;;;;;;2.00;0.52;;;5.10;86.40;;;;;;4986446;28;20054;-77
2021/03/14 00:59:32;;;;;;;2.95;0.45;;;5.10;85.80;;;;;;4984930;28;20062;-75
2021/03/14 01:02:00;;;;;;;5.60;0.80;;;5.20;85.20;;;;;;4999099;28;20042;-76
2021/03/14 01:04:29;;;;;;;2.08;0.45;;;5.10;85.50;;;;;;4993986;28;20054;-76
2021/03/14 01:06:57;;;;;;;1.80;0.20;;;5.10;85.30;;;;;;4996019;28;20092;-76
2021/03/14 01:09:24;;;;;;;3.30;0.82;;;5.10;85.10;;;;;;4993188;28;20050;-76
2021/03/14 01:11:51;;;;;;;0.90;0.77;;;5.10;85.30;;;;;;4992917;28;20054;-76
2021/03/14 01:14:24;;;;;;;1.30;0.40;;;5.00;85.10;;;;;;5018916;28;20113;-75
2021/03/14 01:17:03;;;;;;;0.93;0.50;;;5.00;85.50;;;;;;5011902;28;20099;-78
2021/03/14 01:19:32;;;;;;;0.73;0.30;;;5.00;85.70;;;;;;5018541;28;20049;-76
2021/03/14 01:21:59;;;;;;;1.67;0.52;;;4.90;86.00;;;;;;4996158;28;20124;-77
2021/03/14 01:24:25;;;;;;;1.75;0.75;;;4.90;86.00;;;;;;5002173;28;20138;-77
2021/03/14 01:26:52;;;;;;;0.95;0.40;;;4.90;86.00;;;;;;5001627;28;20102;-77
2021/03/14 01:29:20;;;;;;;0.85;0.40;;;4.90;86.10;;;;;;5000785;28;20911;-79
2021/03/14 01:31:47;;;;;;;2.13;0.70;;;4.90;86.20;;;;;;4999594;28;20223;-78
2021/03/14 01:34:15;;;;;;;2.22;0.65;;;4.90;86.00;;;;;;5000413;28;20053;-76
2021/03/14 01:36:46;;;;;;;1.98;0.77;;;4.90;86.10;;;;;;5000821;28;20061;-77
2021/03/14 01:39:13;;;;;;;2.08;0.30;;;4.80;86.60;;;;;;5002529;28;20054;-78
2021/03/14 01:41:40;;;;;;;2.42;0.55;;;4.80;87.10;;;;;;5001098;28;20054;-78
2021/03/14 01:44:12;;;;;;;7.47;0.98;;;4.70;87.30;;;;;;5001958;28;20050;-76
2021/03/14 01:46:39;;;;;;;0.75;0.30;;;4.70;87.50;;;;;;5004443;28;20116;-79
2021/03/14 01:49:06;;;;;;;1.75;0.60;;;4.70;87.40;;;;;;5002687;28;20046;-78
2021/03/14 01:51:35;;;;;;;1.90;0.57;;;4.70;87.30;;;;;;4986693;28;20057;-76
2021/03/14 01:54:02;;;;;;;4.65;0.50;;;4.70;87.40;;;;;;4980030;28;20088;-76
2021/03/14 01:56:29;;;;;;;3.25;0.50;;;4.70;87.60;;;;;;5000120;28;20764;-79
2021/03/14 01:58:56;;;;;;;1.17;0.50;;;4.60;87.60;;;;;;5002739;28;20080;-79
2021/03/14 02:01:23;;;;;;;1.30;0.50;;;4.60;87.80;;;;;;4972261;28;20634;-76
2021/03/14 02:03:50;;;;;;;3.53;1.00;;;4.60;87.80;;;;;;5002110;28;20046;-77
2021/03/14 02:06:17;;;;;;;2.90;0.73;;;4.50;87.80;;;;;;5018292;28;20065;-75
2021/03/14 02:08:45;;;;;;;1.42;0.77;;;4.40;87.90;;;;;;5000313;28;20464;-76
2021/03/14 02:11:19;;;;;;;4.97;0.52;;;4.40;88.10;;;;;;5000076;28;20065;-76
2021/03/14 02:13:52;;;;;;;0.65;0.30;;;4.40;88.00;;;;;;5000542;28;20049;-76
2021/03/14 02:16:24;;;;;;;3.95;0.85;;;4.40;88.50;;;;;;4999215;28;20045;-76
2021/03/14 02:18:54;;;;;;;2.10;0.45;;;4.40;88.60;;;;;;5003218;28;20085;-76
2021/03/14 02:21:22;;;;;;;2.90;0.50;;;4.40;88.50;;;;;;5001556;28;20264;-77
2021/03/14 02:23:57;;;;;;;7.47;0.63;;;4.40;88.50;;;;;;5026287;28;20045;-76
2021/03/14 02:26:27;;;;;;;2.63;0.55;;;4.50;88.20;;;;;;5004972;28;20389;-76
2021/03/14 02:28:56;;;;;;;1.33;0.60;;;4.50;88.10;;;;;;5016394;28;20049;-78
2021/03/14 02:31:25;;;;;;;2.35;0.70;;;4.50;88.50;;;;;;4998951;28;20108;-76
2021/03/14 02:33:56;;;;;;;1.95;0.47;;;4.40;88.40;;;;;;5001702;28;20233;-76
2021/03/14 02:36:26;;;;;;;1.38;0.40;;;4.40;88.70;;;;;;5004537;28;20046;-77
2021/03/14 02:38:54;;;;;;;2.63;0.80;;;4.40;88.80;;;;;;5017829;28;20078;-76
2021/03/14 02:41:22;;;;;;;2.15;0.75;;;4.40;88.70;;;;;;4999263;28;20046;-75
2021/03/14 02:43:50;;;;;;;0.32;0.30;;;4.50;88.60;;;;;;5002612;28;20250;-77
2021/03/14 02:46:19;;;;;;;4.78;0.35;;;4.40;88.60;;;;;;5004757;28;20049;-77
2021/03/14 02:48:46;;;;;;;3.13;0.30;;;4.40;88.80;;;;;;5000735;28;20349;-76
2021/03/14 02:51:14;;;;;;;4.03;0.98;;;4.40;88.60;;;;;;5000563;28;20415;-74
2021/03/14 02:53:41;;;;;;;1.42;0.40;;;4.40;88.60;;;;;;5003773;28;20230;-76
2021/03/14 02:56:09;;;;;;;0.88;0.50;;;4.40;88.70;;;;;;5000153;28;20057;-75
2021/03/14 02:58:38;;;;;;;0.40;0.38;;;4.40;88.20;;;;;;5004092;28;20113;-77
2021/03/14 03:01:07;;;;;;;1.38;0.40;;;4.40;88.10;;;;;;4982891;28;20113;-78
2021/03/14 03:03:36;;;;;;;4.38;1.25;;;4.40;88.10;;;;;;5004209;28;20827;-76
2021/03/14 03:06:04;;;;;;;3.03;0.93;;;4.50;87.90;;;;;;5004953;28;20069;-75
2021/03/14 03:08:32;;;;;;;1.27;0.43;;;4.40;88.40;;;;;;5002423;28;20096;-75
2021/03/14 03:11:04;;;;;;;4.32;0.93;;;4.30;88.80;;;;;;5000930;28;20046;-75
2021/03/14 03:13:35;;;;;;;3.40;0.65;;;4.20;89.10;;;;;;5005397;28;20073;-76
2021/03/14 03:16:11;;;;;;;1.67;0.35;;;4.30;89.20;;;;;;5003864;28;20289;-74
2021/03/14 03:18:39;;;;;;;2.42;0.45;;;4.30;89.60;;;;;;5023897;28;20058;-75
2021/03/14 03:21:08;;;;;;;4.07;1.23;;;4.20;89.60;;;;;;4995926;28;20329;-75
2021/03/14 03:23:35;;;;;;;2.08;0.45;;;4.20;89.80;;;;;;5011582;28;20171;-76
2021/03/14 03:26:06;;;;;;;6.28;0.75;;;4.20;89.60;;;;;;4998953;28;20050;-76
2021/03/14 03:28:34;;;;;;;1.77;0.30;;;4.20;89.90;;;;;;5000620;28;20049;-78
2021/03/14 03:31:03;;;;;;;2.22;0.88;;;4.20;90.00;;;;;;5002907;28;20112;-76
2021/03/14 03:33:30;;;;;;;5.50;0.93;;;4.20;90.10;;;;;;5002606;28;20053;-76
2021/03/14 03:35:59;;;;;;;5.38;0.80;;;4.20;90.30;;;;;;5002430;28;20365;-75
2021/03/14 03:38:26;;;;;;;1.88;0.57;;;4.30;90.00;;;;;;4998930;28;20050;-77
2021/03/14 03:40:54;;;;;;;1.02;0.57;;;4.20;90.40;;;;;;5002718;28;20073;-76
2021/03/14 03:43:25;;;;;;;1.95;0.55;;;4.20;90.80;;;;;;5013407;28;20054;-76
2021/03/14 03:45:56;;;;;;;1.13;0.35;;;4.10;91.10;;;;;;5020161;28;20120;-77
2021/03/14 03:48:29;;;;;;;1.58;0.50;;;4.20;91.30;;;;;;5015653;28;20117;-77
2021/03/14 03:51:00;;;;;;;3.60;0.70;;;4.10;91.50;;;;;;5003706;28;20054;-76
2021/03/14 03:53:33;;;;;;;2.63;0.82;;;4.20;91.50;;;;;;5007214;28;20061;-77
2021/03/14 03:56:01;;;;;;;1.38;0.65;;;4.10;91.10;;;;;;4997624;28;20226;-76
2021/03/14 03:58:38;;;;;;;1.02;0.40;;;4.10;91.10;;;;;;5018020;28;20285;-76
2021/03/14 04:01:06;;;;;;;1.00;0.52;;;4.00;90.50;;;;;;5001644;28;20053;-77
2021/03/14 04:03:39;;;;;;;3.03;0.70;;;3.90;90.50;;;;;;5005449;28;20050;-75
2021/03/14 04:06:08;;;;;;;1.95;0.80;;;3.90;90.30;;;;;;4997699;28;20117;-76
2021/03/14 04:08:36;;;;;;;2.17;0.40;;;3.90;90.30;;;;;;4996100;28;20070;-75
2021/03/14 04:11:06;;;;;;;1.27;0.43;;;3.90;90.20;;;;;;5001426;28;20056;-78
2021/03/14 04:13:35;;;;;;;2.60;0.55;;;3.80;90.30;;;;;;5003187;28;20053;-77
2021/03/14 04:16:03;;;;;;;0.63;0.50;;;3.80;90.40;;;;;;4998288;28;20134;-76
2021/03/14 04:18:31;;;;;;;3.70;1.30;;;3.80;90.20;;;;;;4998179;28;20050;-75
2021/03/14 04:21:03;;;;;;;3.28;1.27;;;3.80;90.40;;;;;;5002009;28;20076;-76
2021/03/14 04:23:33;;;;;;;2.38;1.05;;;3.80;90.50;;;;;;5007567;28;20069;-75
2021/03/14 04:26:02;;;;;;;1.85;0.95;;;3.70;90.80;;;;;;5001873;28;20046;-74
2021/03/14 04:28:32;;;;;;;2.43;1.10;;;3.70;90.90;;;;;;4997437;28;20376;-77
2021/03/14 04:31:00;;;;;;;2.85;1.20;;;3.70;90.90;;;;;;4984133;28;20294;-78
2021/03/14 04:33:30;;;;;;;1.52;0.70;;;3.70;90.80;;;;;;5010273;28;20433;-78
2021/03/14 04:35:59;;;;;;;2.50;0.85;;;3.70;90.80;;;;;;5000902;28;20058;-75
2021/03/14 04:38:29;;;;;;;4.47;1.13;;;3.80;90.50;;;;;;5006938;28;20045;-75
2021/03/14 04:40:59;;;;;;;3.40;1.02;;;3.80;90.80;;;;;;4985774;28;20349;-76
2021/03/14 04:43:27;;;;;;;1.67;0.95;;;3.80;90.70;;;;;;5003446;28;20101;-76
2021/03/14 04:45:55;;;;;;;2.42;0.98;;;3.80;90.80;;;;;;5009162;28;20058;-77
2021/03/14 04:48:23;;;;;;;3.20;1.10;;;3.90;90.60;;;;;;4991325;28;20285;-79
2021/03/14 04:50:52;;;;;;;2.22;1.20;;;3.90;90.40;;;;;;5002547;28;20046;-77
2021/03/14 04:53:25;;;;;;;2.15;1.08;;;3.80;90.90;;;;;;5004549;28;20076;-79
2021/03/14 04:55:54;;;;;;;3.20;1.38;;;3.80;90.70;;;;;;5025247;28;20053;-76
2021/03/14 04:58:24;;;;;;;2.25;1.05;;;3.80;90.90;;;;;;5003577;28;20070;-77
2021/03/14 05:00:51;;;;;;;5.13;1.00;;;3.80;91.00;;;;;;5006889;28;20065;-75
2021/03/14 05:03:23;;;;;;;2.50;1.23;;;3.90;91.00;;;;;;5002663;28;20061;-76
2021/03/14 05:05:52;;;;;;;3.53;1.27;;;3.90;90.70;;;;;;5008336;28;20091;-76
2021/03/14 05:08:23;;;;;;;2.97;0.98;;;3.80;91.00;;;;;;5009709;28;20042;-75
2021/03/14 05:10:51;;;;;;;2.53;1.10;;;3.80;91.20;;;;;;5026540;28;20273;-76
2021/03/14 05:13:19;;;;;;;2.38;1.10;;;3.90;91.10;;;;;;4985370;28;20077;-75
2021/03/14 05:15:51;;;;;;;2.92;1.23;;;3.80;91.40;;;;;;5009851;28;20054;-75
2021/03/14 05:18:19;;;;;;;4.15;1.77;;;3.70;91.50;;;;;;5011153;28;20211;-77
2021/03/14 05:20:47;;;;;;;2.33;1.20;;;3.70;91.80;;;;;;4985197;28;20062;-76
2021/03/14 05:23:16;;;;;;;3.40;2.03;;;3.70;91.90;;;;;;4992996;28;20034;-77
2021/03/14 05:25:43;;;;;;;5.22;1.92;;;3.70;91.60;;;;;;5010134;28;20100;-79
2021/03/14 05:28:14;;;;;;;5.38;1.65;;;3.70;91.90;;;;;;5011477;28;20058;-76
2021/03/14 05:30:43;;;;;;;7.05;1.30;;;3.70;91.80;;;;;;5023994;28;20349;-74
2021/03/14 05:33:11;;;;;;;2.88;1.20;;;3.70;91.80;;;;;;5019689;28;20051;-77
2021/03/14 05:35:39;;;;;;;3.35;1.00;;;3.80;91.80;;;;;;5018417;28;20108;-76
2021/03/14 05:38:09;;;;;;;1.83;0.80;;;3.80;91.40;;;;;;5008882;28;20053;-76
2021/03/14 05:40:36;;;;;;;4.73;1.07;;;3.80;91.40;;;;;;5008826;28;20109;-76
2021/03/14 05:43:05;;;;;;;2.75;1.08;;;3.90;91.10;;;;;;5010030;28;20042;-76
2021/03/14 05:45:33;;;;;;;1.70;0.90;;;4.00;91.10;;;;;;5008079;28;20287;-76
2021/03/14 05:48:01;;;;;;;3.60;0.93;;;4.00;91.20;;;;;;4990172;28;20041;-77
2021/03/14 05:50:36;;;;;;;3.05;1.45;;;4.10;91.40;;;;;;5014766;28;20054;-76
2021/03/14 05:53:03;;;;;;;3.35;1.00;;;4.00;91.40;;;;;;4993483;28;20069;-75
2021/03/14 05:55:31;;;;;;;2.20;1.13;;;4.00;91.50;;;;;;5010595;28;20045;-76
2021/03/14 05:57:58;;;;;;;2.50;0.70;;;4.00;91.40;;;;;;5008730;28;20156;-76
2021/03/14 06:00:28;;;;;;;2.03;0.85;;;3.90;91.30;;;;;;5020848;28;20050;-75
2021/03/14 06:02:58;;;;;;;1.38;0.73;;;3.90;91.50;;;;;;5011663;28;20335;-77
2021/03/14 06:05:32;;;;;;;1.63;0.93;;;3.90;91.40;;;;;;5010271;28;20050;-75
2021/03/14 06:08:01;;;;;;;2.42;1.23;;;3.80;91.40;;;;;;5006336;28;20062;-79
2021/03/14 06:10:31;;;;;;;1.90;0.70;;;3.80;91.20;;;;;;5012752;28;20038;-77
2021/03/14 06:12:58;;;;;;;1.30;0.65;;;3.70;91.50;;;;;;5011069;28;20054;-77
2021/03/14 06:15:25;;;;;;;1.83;0.80;;;3.70;91.60;;;;;;5002884;28;20117;-77
2021/03/14 06:17:52;;;;;;;2.10;0.75;;;3.70;91.70;;;;;;5011363;28;20050;-77
2021/03/14 06:20:37;;;;;;;3.60;1.33;;;3.70;91.80;;;;;;5012715;28;20253;-76
2021/03/14 06:23:10;;;;;;;1.73;0.98;;;3.70;92.10;;;;;;5010322;28;20054;-75
2021/03/14 06:25:38;;;;;;;3.03;1.55;;;3.80;91.80;;;;;;5005566;28;20050;-79
2021/03/14 06:28:06;;;;;;;2.45;0.93;;;3.80;91.60;;;;;;5004377;28;20360;-76
2021/03/14 06:30:35;;;;;;;1.15;0.50;;;3.80;91.60;;;;;;5006041;28;20042;-74
2021/03/14 06:33:06;;;;;;;3.75;0.70;;;3.80;91.50;;;;;;5007524;28;20058;-75
2021/03/14 06:35:42;;;;;;;2.60;0.98;;;3.90;91.70;;;;;;5004340;28;20069;-76
2021/03/14 06:38:25;;;;;;;1.30;0.60;;;3.90;91.40;;;;;;5009000;28;20113;-77
2021/03/14 06:41:14;;;;;;;1.15;0.77;;;4.00;91.00;;;;;;5007085;28;20054;-75
2021/03/14 06:43:43;;;;;;;1.85;1.00;;;4.00;91.10;;;;;;5007669;28;20062;-75
2021/03/14 06:46:25;;;;;;;2.65;0.57;;;4.10;91.40;;;;;;4989319;28;20058;-76
2021/03/14 06:49:05;;;;;;;2.50;0.85;;;4.10;91.10;;;;;;5019082;28;20118;-75
2021/03/14 06:51:33;;;;;;;1.45;1.25;;;4.20;91.10;;;;;;5010736;28;20054;-78
2021/03/14 06:54:25;;;;;;;2.55;0.90;;;4.20;90.70;;;;;;5005808;28;20041;-74
2021/03/14 06:57:22;;;;;;;2.75;0.70;;;4.20;90.20;;;;;;5007688;28;20120;-76
2021/03/14 06:59:50;;;;;;;1.67;0.88;;;4.20;90.10;;;;;;5008632;28;20117;-75
2021/03/14 07:02:18;;;;;;;1.05;0.60;;;4.20;90.50;;;;;;4986302;28;20341;-77
2021/03/14 07:04:48;;;;;;;2.63;0.63;;;4.20;90.30;;;;;;5010346;28;20300;-78
2021/03/14 07:07:18;;;;;;;1.30;0.70;;;4.20;89.90;;;;;;5004175;28;20116;-74
2021/03/14 07:09:47;;;;;;;2.15;1.13;;;4.20;90.10;;;;;;4999582;28;20077;-74
2021/03/14 07:12:20;;;;;;;1.25;0.40;;;4.40;90.00;;;;;;5001449;28;20057;-77
2021/03/14 07:14:47;;;;;;;1.88;0.43;;;4.30;89.60;;;;;;5019472;28;20112;-77
2021/03/14 07:17:27;;;;;;;1.88;0.40;;;4.40;89.60;;;;;;5002401;28;20057;-77
2021/03/14 07:19:59;;;;;;;0.90;0.45;;;4.40;88.70;;;;;;4997542;28;20156;-75
2021/03/14 07:22:27;;;;;;;1.70;0.60;;;4.40;89.10;;;;;;5020291;28;20104;-77
2021/03/14 07:24:55;;;;;;;2.78;0.90;;;4.50;88.70;;;;;;5002952;28;20057;-78
2021/03/14 07:27:24;;;;;;;4.28;0.98;;;4.50;88.30;;;;;;5018556;28;20097;-78
2021/03/14 07:29:53;;;;;;;0.70;0.30;;;4.50;88.00;;;;;;5014620;28;20235;-76
2021/03/14 07:32:21;;;;;;;2.92;0.60;;;4.50;88.30;;;;;;4999760;28;20070;-75
2021/03/14 07:34:48;;;;;;;2.22;0.70;;;4.60;87.80;;;;;;5003046;28;20053;-75
2021/03/14 07:37:16;;;;;;;0.90;0.43;;;4.60;88.00;;;;;;4982016;28;20077;-76
2021/03/14 07:39:46;;;;;;;1.73;0.70;;;4.70;87.40;;;;;;5003453;28;20064;-75
2021/03/14 07:42:18;;;;;;;3.20;0.60;;;4.70;86.90;;;;;;4998185;28;20313;-77
2021/03/14 07:44:45;;;;;;;1.17;0.50;;;4.80;86.70;;;;;;5007113;28;20192;-78
2021/03/14 07:47:16;;;;;;;2.90;0.95;;;4.80;86.80;;;;;;5002217;28;20157;-77
2021/03/14 07:49:49;;;;;;;2.83;0.55;;;4.90;86.50;;;;;;4998097;28;20049;-75
2021/03/14 07:52:23;;;;;;;1.27;0.73;;;4.90;85.90;;;;;;4998536;28;20066;-76
2021/03/14 07:54:56;;;;;;;3.40;1.05;;;5.00;86.00;;;;;;5002976;28;20096;-75
2021/03/14 07:57:26;;;;;;;1.45;0.80;;;5.00;85.30;;;;;;5001249;28;20049;-77
2021/03/14 07:59:53;;;;;;;1.45;0.75;;;5.00;84.50;;;;;;5004148;28;20057;-77
2021/03/14 08:02:30;;;;;;;2.33;1.02;;;5.10;84.60;;;;;;4993745;28;20077;-76
2021/03/14 08:05:03;;;;;;;2.80;0.52;;;5.20;85.10;;;;;;5000138;28;20077;-78
2021/03/14 08:07:48;;;;;;;1.83;0.70;;;5.20;83.00;;;;;;5000645;28;20049;-77
2021/03/14 08:10:39;;;;;;;1.02;0.60;;;5.40;82.80;;;;;;4981157;28;20479;-78
2021/03/14 08:13:13;;;;;;;2.53;1.10;;;5.40;82.70;;;;;;4999927;28;20062;-77
2021/03/14 08:15:40;;;;;;;0.95;0.60;;;5.40;83.20;;;;;;5013934;28;20050;-76
2021/03/14 08:18:07;;;;;;;2.70;1.88;;;5.60;81.60;;;;;;5002180;28;20065;-75
2021/03/14 08:20:43;;;;;;;2.33;1.00;;;5.60;81.30;;;;;;4993285;28;20065;-77
2021/03/14 08:23:15;;;;;;;1.30;0.70;;;5.70;81.00;;;;;;5001454;28;20054;-76
2021/03/14 08:25:44;;;;;;;1.58;0.70;;;5.70;81.10;;;;;;5000193;28;20060;-79
2021/03/14 08:28:33;;;;;;;2.88;0.75;;;5.70;80.60;;;;;;4986115;28;20053;-78
2021/03/14 08:31:15;;;;;;;3.95;1.15;;;5.90;80.00;;;;;;5003316;28;20413;-76
2021/03/14 08:33:46;;;;;;;3.85;0.90;;;5.90;80.90;;;;;;5015845;28;20061;-76
2021/03/14 08:36:33;;;;;;;1.08;0.45;;;6.00;79.60;;;;;;4994242;28;20965;-76
2021/03/14 08:39:08;;;;;;;2.25;0.98;;;6.10;79.30;;;;;;5001592;28;20129;-75
2021/03/14 08:41:41;;;;;;;2.17;0.85;;;6.10;78.80;;;;;;5002983;28;20050;-75
2021/03/14 08:44:32;;;;;;;1.77;0.50;;;6.10;78.40;;;;;;5002231;28;20277;-75
2021/03/14 08:47:14;;;;;;;2.47;0.85;;;6.20;78.80;;;;;;4995988;28;20316;-75
2021/03/14 08:49:49;;;;;;;2.22;1.13;;;6.10;77.60;;;;;;5002833;28;20051;-76
2021/03/14 08:52:21;;;;;;;1.77;0.60;;;6.10;78.20;;;;;;4978863;28;20052;-74
2021/03/14 08:54:59;;;;;;;0.25;0.25;;;6.10;77.40;;;;;;5002741;28;20050;-77
2021/03/14 08:57:29;;;;;;;;;;;5.90;77.60;;;;;;5003554;28;20058;-74
2021/03/14 09:00:03;;;;;;;1.20;0.60;;;5.90;79.10;;;;;;5016799;28;19925;-74
2021/03/14 09:02:37;;;;;;;1.77;0.80;;;6.20;77.90;;;;;;5018523;28;20126;-74
2021/03/14 09:05:16;;;;;;;1.80;0.73;;;6.40;77.40;;;;;;5007171;28;20046;-76
2021/03/14 09:07:59;;;;;;;3.63;1.50;;;6.60;76.10;;;;;;5003654;28;20045;-75
2021/03/14 09:10:26;;;;;;;1.55;0.70;;;6.70;74.30;;;;;;5004496;28;20421;-75
2021/03/14 09:13:13;;;;;;;0.90;0.40;;;6.50;74.30;;;;;;5016960;28;20065;-77
2021/03/14 09:15:51;;;;;;;0.77;0.45;;;6.60;74.60;;;;;;4996204;28;20353;-76
2021/03/14 09:18:30;;;;;;;1.42;0.65;;;6.60;74.60;;;;;;5001110;28;20696;-75
2021/03/14 09:21:08;;;;;;;3.35;0.65;;;6.90;75.10;;;;;;4999807;28;20049;-76
2021/03/14 09:23:46;;;;;;;3.70;1.80;;;6.80;73.20;;;;;;4999972;28;20053;-74
2021/03/14 09:26:28;;;;;;;2.63;0.73;;;6.90;73.60;;;;;;5001183;28;20734;-75
2021/03/14 09:28:56;;;;;;;3.70;0.50;;;7.00;73.10;;;;;;4981178;28;20049;-77
2021/03/14 09:31:26;;;;;;;1.83;0.63;;;6.90;73.60;;;;;;4977276;28;20054;-75
2021/03/14 09:34:00;;;;;;;4.95;0.95;;;6.90;73.70;;;;;;5020879;28;20073;-76
2021/03/14 09:36:35;;;;;;;4.55;0.68;;;7.20;72.70;;;;;;5015425;28;20078;-75
2021/03/14 09:39:07;;;;;;;5.40;1.30;;;7.30;72.50;;;;;;4996628;28;20117;-75
2021/03/14 09:42:05;;;;;;;2.40;0.85;;;7.20;71.80;;;;;;5014092;28;20076;-75
2021/03/14 09:45:13;;;;;;;4.38;0.90;;;7.10;72.50;;;;;;4999673;28;20058;-75
2021/03/14 09:48:06;;;;;;;1.67;0.70;;;7.30;72.50;;;;;;5016710;28;20110;-75
2021/03/14 09:50:52;;;;;;;7.82;0.90;;;7.40;71.80;;;;;;4999707;28;20438;-74
2021/03/14 09:53:24;;;;;;;1.98;0.85;;;7.30;71.80;;;;;;5011874;28;20073;-77
2021/03/14 09:55:59;;;;;;;2.53;0.77;;;7.10;71.90;;;;;;4999478;28;20046;-75
2021/03/14 09:58:31;;;;;;;3.10;0.68;;;7.10;72.60;;;;;;5001683;28;20042;-75
2021/03/14 10:01:02;;;;;;;3.83;1.50;;;7.10;72.00;;;;;;4997659;28;20113;-75
2021/03/14 10:03:32;;;;;;;1.20;0.35;;;7.00;73.30;;;;;;4999384;28;20304;-76
2021/03/14 10:06:07;;;;;;;1.35;0.40;;;7.00;73.20;;;;;;5000876;28;20042;-74
2021/03/14 10:08:42;;;;;;;3.13;0.70;;;6.90;73.50;;;;;;4997108;28;20062;-74
2021/03/14 10:11:13;;;;;;;4.57;1.05;;;6.80;74.10;;;;;;5009718;28;20251;-76
2021/03/14 10:13:45;;;;;;;5.88;1.00;;;6.80;74.70;;;;;;4993331;28;20045;-74
2021/03/14 10:16:15;;;;;;;3.83;1.45;;;6.80;74.60;;;;;;5016428;28;20051;-75
2021/03/14 10:18:45;;;;;;;2.22;1.10;;;6.90;74.40;;;;;;5017247;28;20453;-75
2021/03/14 10:21:19;;;;;;;1.83;0.50;;;7.30;73.40;;;;;;5003971;28;20057;-76
2021/03/14 10:24:18;;;;;;;0.70;0.50;;;7.70;70.80;;;;;;5003145;28;20341;-75
2021/03/14 10:26:56;;;;;;;3.53;0.60;;;7.80;68.60;;;;;;5001470;28;20346;-76
2021/03/14 10:29:33;;;;;;;;;;;8.10;66.70;;;;;;5003975;28;20244;-75
2021/03/14 10:32:19;;;;;;;5.43;1.38;;;7.70;66.60;;;;;;5003766;28;19929;-75
2021/03/14 10:34:59;;;;;;;1.77;0.70;;;7.60;65.70;;;;;;5017033;28;20285;-74
2021/03/14 10:37:28;;;;;;;3.10;0.70;;;7.40;65.60;;;;;;5020184;28;20606;-75
2021/03/14 10:39:59;;;;;;;1.92;0.50;;;7.30;67.50;;;;;;5012405;28;20206;-76
2021/03/14 10:42:32;;;;;;;3.20;0.63;;;7.30;66.10;;;;;;5004256;28;20050;-76
2021/03/14 10:45:05;;;;;;;0.85;0.50;;;7.20;65.50;;;;;;5005499;28;20408;-76
2021/03/14 10:47:33;;;;;;;0.60;0.43;;;7.10;66.50;;;;;;5002266;28;20053;-76
2021/03/14 10:50:13;;;;;;;7.50;0.70;;;7.10;65.80;;;;;;5018528;28;20054;-76
2021/03/14 10:52:44;;;;;;;2.50;0.85;;;7.20;66.50;;;;;;5023093;28;20224;-75
2021/03/14 10:55:27;;;;;;;2.67;1.00;;;7.40;64.50;;;;;;5006794;28;20657;-75
2021/03/14 10:58:15;;;;;;;3.08;1.55;;;7.50;63.70;;;;;;5002627;28;20058;-76
2021/03/14 11:00:50;;;;;;;3.05;0.63;;;8.00;63.80;;;;;;5001448;28;20444;-77
2021/03/14 11:03:24;;;;;;;4.75;1.13;;;9.00;62.70;;;;;;5005656;28;20160;-76
2021/03/14 11:06:08;;;;;;;2.05;0.68;;;9.50;57.90;;;;;;5013269;28;20045;-74
2021/03/14 11:08:55;;;;;;;4.22;0.65;;;10.60;54.20;;;;;;4998779;28;20062;-77
2021/03/14 11:11:40;;;;;;;5.78;0.63;;;9.70;56.20;;;;;;5002782;28;20311;-75
2021/03/14 11:14:33;;;;;;;4.10;0.70;;;9.30;59.40;;;;;;5004511;28;20355;-76
2021/03/14 11:17:22;;;;;;;4.00;1.15;;;10.30;54.60;;;;;;5004091;28;20491;-76
2021/03/14 11:20:19;;;;;;;8.05;2.22;;;11.60;53.50;;;;;;4998671;28;20046;-76
2021/03/14 11:23:00;;;;;;;1.63;0.68;;;11.10;52.30;;;;;;4979181;28;20064;-76
2021/03/14 11:25:40;;;;;;;0.55;0.40;;;11.40;50.70;;;;;;5001624;28;21225;-75
2021/03/14 11:28:09;;;;;;;2.05;0.50;;;10.90;51.50;;;;;;4998854;28;20368;-76
2021/03/14 11:30:39;;;;;;;6.78;0.68;;;11.30;49.80;;;;;;5000801;28;20058;-77
2021/03/14 11:33:07;;;;;;;1.98;0.40;;;10.10;52.70;;;;;;4986446;28;20185;-75
2021/03/14 11:35:55;;;;;;;4.57;0.60;;;9.60;54.70;;;;;;5000962;28;20041;-75
2021/03/14 11:38:52;;;;;;;6.25;1.33;;;9.20;55.50;;;;;;4999380;28;22047;-76
2021/03/14 11:41:37;;;;;;;3.95;0.80;;;9.20;55.90;;;;;;4987685;28;20070;-76
2021/03/14 11:44:22;;;;;;;5.32;0.60;;;11.20;50.70;;;;;;5005471;28;20826;-75
2021/03/14 11:46:50;;;;;;;1.55;0.70;;;10.30;52.40;;;;;;5003640;28;20065;-77
2021/03/14 11:49:25;;;;;;;4.70;0.70;;;9.20;54.00;;;;;;4996171;28;20056;-76
2021/03/14 11:51:52;;;;;;;2.70;0.60;;;8.60;55.60;;;;;;4984599;28;20058;-76
2021/03/14 11:54:24;;;;;;;5.13;0.85;;;8.20;58.80;;;;;;4999628;28;20045;-78
2021/03/14 11:56:56;;;;;;;3.85;0.80;;;8.10;60.00;;;;;;4983362;28;20054;-75
2021/03/14 11:59:28;;;;;;;2.70;0.65;;;8.00;60.80;;;;;;4997701;28;20060;-75
2021/03/14 12:02:03;;;;;;;2.60;0.68;;;8.00;61.50;;;;;;5000478;28;20045;-76
2021/03/14 12:04:47;;;;;;;2.88;0.77;;;7.90;61.60;;;;;;5002670;28;20352;-75
2021/03/14 12:07:15;;;;;;;4.80;0.90;;;8.00;61.20;;;;;;5008106;28;20054;-77
2021/03/14 12:09:43;;;;;;;1.85;0.65;;;8.10;62.10;;;;;;5000758;28;20138;-74
2021/03/14 12:12:12;;;;;;;1.70;0.50;;;8.00;61.20;;;;;;4972938;28;20341;-76
2021/03/14 12:14:44;;;;;;;2.42;0.50;;;7.80;62.30;;;;;;5001768;28;20050;-77
2021/03/14 12:17:34;;;;;;;4.38;0.50;;;7.70;62.70;;;;;;5002294;28;20054;-77
2021/03/14 12:20:28;;;;;;;6.20;1.08;;;7.60;63.20;;;;;;4998089;28;20076;-78
2021/03/14 12:23:06;;;;;;;2.85;0.50;;;7.70;64.50;;;;;;5007456;28;20049;-78
2021/03/14 12:25:41;;;;;;;4.03;0.73;;;8.10;62.60;;;;;;5020437;28;20058;-77
2021/03/14 12:28:14;;;;;;;3.35;0.57;;;8.90;61.70;;;;;;5016468;28;20096;-76
2021/03/14 12:30:43;;;;;;;2.25;0.43;;;8.80;59.90;;;;;;5019895;28;20057;-76
2021/03/14 12:33:11;;;;;;;5.40;0.98;;;8.60;61.30;;;;;;5017737;28;20065;-76
2021/03/14 12:35:39;;;;;;;5.03;1.08;;;8.70;61.40;;;;;;5016996;28;20353;-78
2021/03/14 12:38:12;;;;;;;2.88;0.80;;;8.70;61.70;;;;;;4999998;28;20254;-77
2021/03/14 12:40:53;;;;;;;1.23;0.43;;;8.70;62.70;;;;;;5113866;27;20377;-59
2021/03/14 12:43:21;;;;;;;3.40;1.05;;;8.30;63.10;;;;;;5108072;27;20075;-60
2021/03/14 12:45:52;;;;;;;2.80;0.98;;;8.00;64.20;;;;;;5095371;28;20280;-59
2021/03/14 12:48:19;;;;;;;4.38;0.93;;;7.70;65.70;;;;;;5125818;27;20052;-59
2021/03/14 12:50:52;;;;;;;2.72;1.05;;;7.40;69.30;;;;;;5093712;28;20048;-60
2021/03/14 12:53:22;;;;;;;3.13;0.55;;;7.30;69.40;;;;;;5094904;27;20056;-60
2021/03/14 12:55:50;;;;;;;1.70;0.50;;;7.20;71.10;;;;;;5094148;28;20048;-60
2021/03/14 12:58:20;;;;;;;3.13;1.10;;;7.00;72.30;;;;;;5094614;28;20382;-60
2021/03/14 13:00:53;;;;;;;3.10;1.17;;;7.00;72.80;;;;;;5101198;27;20117;-60
2021/03/14 13:03:20;;;;;;;2.65;0.73;;;7.10;74.60;;;;;;5090660;28;20331;-59
2021/03/14 13:05:47;;;;;;;4.03;2.05;;;7.10;75.90;;;;;;5091485;28;20054;-60
2021/03/14 13:08:14;;;;;;;6.10;1.50;;;7.20;74.40;;;;;;5088959;27;20112;-60
2021/03/14 13:10:41;;;;;;;3.63;1.13;;;7.10;75.60;;;;;;5091254;28;20154;-59
2021/03/14 13:13:08;;;;;;;2.90;0.93;;;6.90;73.30;;;;;;5091493;28;20172;-60
2021/03/14 13:15:36;;;;;;;3.92;1.83;;;6.80;76.40;;;;;;5107182;28;20057;-60
2021/03/14 13:18:03;;;;;;;3.45;1.02;;;6.70;75.90;;;;;;5095096;28;20051;-60
2021/03/14 13:20:30;;;;;;;4.50;1.00;;;6.80;77.30;;;;;;5089469;28;20051;-60
2021/03/14 13:22:57;;;;;;;2.63;0.77;;;6.90;78.20;;;;;;5093373;28;20351;-60